Nashville (BNA/KBNA)

Information

Location
Nashville, TN
Local Time
21:26 / 9:26 pm
GMT Time
02:26 / 2:26 am
Gates
Unassigned
No FAA reported delays
METAR KBNA 280153Z 09004KT 10SM FEW060 SCT120 OVC150 16/14 A2987 RMK AO2 LTG DSNT E AND SE SLP110 T01560144
TAF KBNA 280058Z 2801/2824 17003KT P6SM SCT027 BKN080 BKN150 TEMPO 2801/2802 5SM -SHRA OVC027 FM280900 26006KT P6SM OVC012 FM282100 32004KT P6SM SCT040
  • No charts available